This is the latest recevied weather packets stored in our database for station/object DL8TF-13. If no packets are shown the sender has not sent any weather packets the latest 10 day(s).
| Time | Temp. | Humidity | Pressure | Rain* | Wind** | Luminosity | Snow |
|---|---|---|---|---|---|---|---|
| 1777586606 | 11.67° C | 32% | 994 hPa | - | - | - | - |
| 1777586005 | 11.11° C | 35% | 994 hPa | - | - | - | - |
| 1777585405 | 10.56° C | 36% | 994 hPa | - | - | - | - |
| 1777584805 | 11.11° C | 38% | 994 hPa | - | - | - | - |
| 1777584205 | 10.56° C | 38% | 994 hPa | - | - | - | - |
| 1777583605 | 10.56° C | 40% | 994 hPa | - | - | - | - |
| 1777583005 | 11.11° C | 39% | 994 hPa | - | - | - | - |
| 1777582405 | 11.11° C | 40% | 994 hPa | - | - | - | - |
| 1777581805 | 11.11° C | 39% | 994 hPa | - | - | - | - |
| 1777581205 | 11.67° C | 38% | 994 hPa | - | - | - | - |
| 1777580605 | 11.67° C | 37% | 994 hPa | - | - | - | - |
| 1777580005 | 11.67° C | 37% | 994 hPa | - | - | - | - |
| 1777579405 | 12.22° C | 37% | 994 hPa | - | - | - | - |
| 1777578805 | 12.78° C | 35% | 993 hPa | - | - | - | - |
| 1777578205 | 12.78° C | 33% | 993 hPa | - | - | - | - |
| 1777577604 | 13.33° C | 32% | 993 hPa | - | - | - | - |
| 1777577004 | 13.89° C | 31% | 993 hPa | - | - | - | - |
| 1777576404 | 14.44° C | 29% | 993 hPa | - | - | - | - |
| 1777575804 | 15° C | 28% | 993 hPa | - | - | - | - |
| 1777575204 | 15.56° C | 27% | 993 hPa | - | - | - | - |
| 1777574604 | 16.11° C | 23% | 993 hPa | - | - | - | - |
| 1777574004 | 16.67° C | 21% | 993 hPa | - | - | - | - |
| 1777573404 | 17.22° C | 20% | 993 hPa | - | - | - | - |
| 1777572804 | 17.78° C | 19% | 993 hPa | - | - | - | - |
| 1777572204 | 18.33° C | 18% | 992 hPa | - | - | - | - |
* Rain since midnight (hover to see other rain measurements)
** Current wind speed in m/s (hover to see current wind gust speed)